Time;durP1;ratioP1;P1;durP2;ratioP2;P2;SDS_P1;SDS_P2;PMS_P1;PMS_P2;Temp;Humidity;BMP_temperature;BMP_pressure;BME280_temperature;BME280_humidity;BME280_pressure;Samples;Min_cycle;Max_cycle;Signal;HPM_P1;HPM_P2
2023/02/05 00:00:24;;;;;;;6.88;5.40;;;;;;;-1.08;100.00;103118.25;5077009;28;20055;-78
2023/02/05 00:02:51;;;;;;;8.93;5.10;;;;;;;-1.09;100.00;103117.38;5075336;28;20055;-77
2023/02/05 00:05:17;;;;;;;8.05;5.18;;;;;;;-1.08;100.00;103110.53;5071064;28;20039;-80
2023/02/05 00:07:44;;;;;;;9.50;4.85;;;;;;;-1.12;100.00;103109.44;5070037;28;20037;-78
2023/02/05 00:10:10;;;;;;;8.40;5.72;;;;;;;-1.11;100.00;103107.75;5081771;28;20032;-79
2023/02/05 00:12:37;;;;;;;8.52;5.28;;;;;;;-1.12;100.00;103100.78;5094375;28;20044;-77
2023/02/05 00:15:04;;;;;;;6.03;4.80;;;;;;;-1.20;100.00;103113.97;5067047;28;20486;-77
2023/02/05 00:17:31;;;;;;;8.02;4.75;;;;;;;-1.26;100.00;103107.44;5086277;28;20763;-78
2023/02/05 00:19:57;;;;;;;5.13;4.65;;;;;;;-1.18;100.00;103094.41;5085782;28;20047;-81
2023/02/05 00:22:24;;;;;;;4.47;3.72;;;;;;;-1.16;100.00;103097.13;5080325;28;20036;-79
2023/02/05 00:24:50;;;;;;;7.43;4.53;;;;;;;-1.18;100.00;103091.81;5100022;27;20130;-77
2023/02/05 00:27:17;;;;;;;6.53;4.10;;;;;;;-1.15;100.00;103098.00;5089090;28;20036;-82
2023/02/05 00:29:43;;;;;;;4.15;3.72;;;;;;;-1.18;100.00;103099.53;5077436;28;20429;-82
2023/02/05 00:32:10;;;;;;;9.25;3.92;;;;;;;-1.18;100.00;103091.81;5083289;28;20105;-77
2023/02/05 00:34:36;;;;;;;8.48;4.55;;;;;;;-1.21;100.00;103095.84;5083413;28;20032;-79
2023/02/05 00:37:05;;;;;;;5.88;3.72;;;;;;;-1.21;100.00;103090.72;5083504;28;20114;-78
2023/02/05 00:39:32;;;;;;;3.97;3.47;;;;;;;-1.27;100.00;103080.84;5084707;28;20035;-79
2023/02/05 00:41:58;;;;;;;4.93;3.85;;;;;;;-1.26;100.00;103079.19;5081216;28;20052;-77
2023/02/05 00:44:25;;;;;;;5.78;3.47;;;;;;;-1.26;100.00;103063.75;5082187;28;20047;-82
2023/02/05 00:46:51;;;;;;;8.07;3.67;;;;;;;-1.26;100.00;103062.06;5091889;28;20040;-77
2023/02/05 00:49:18;;;;;;;5.35;3.70;;;;;;;-1.26;100.00;103061.19;5075766;28;20044;-78
2023/02/05 00:51:44;;;;;;;4.65;3.45;;;;;;;-1.25;100.00;103053.59;5077136;28;20040;-83
2023/02/05 00:54:11;;;;;;;5.30;3.53;;;;;;;-1.28;100.00;103045.63;5080067;28;20078;-77
2023/02/05 00:56:37;;;;;;;4.65;3.42;;;;;;;-1.31;100.00;103042.81;5073103;28;20048;-79
2023/02/05 00:59:04;;;;;;;7.38;3.72;;;;;;;-1.31;100.00;103042.81;5088151;28;20652;-77
2023/02/05 01:01:30;;;;;;;9.52;3.78;;;;;;;-1.28;100.00;103037.03;5078598;28;20632;-82
2023/02/05 01:03:57;;;;;;;4.13;3.13;;;;;;;-1.33;100.00;103036.66;5080480;28;20036;-78
2023/02/05 01:06:23;;;;;;;6.82;3.45;;;;;;;-1.37;100.00;103035.53;5056216;28;20051;-80
2023/02/05 01:08:49;;;;;;;3.08;2.78;;;;;;;-1.34;100.00;103033.19;5067076;28;20048;-75
2023/02/05 01:11:16;;;;;;;3.70;3.33;;;;;;;-1.38;100.00;103031.19;5084313;28;20131;-81
2023/02/05 01:13:42;;;;;;;8.32;3.08;;;;;;;-1.37;100.00;103032.06;5074874;28;20036;-81
2023/02/05 01:16:10;;;;;;;6.70;2.63;;;;;;;-1.37;100.00;103015.00;5084533;28;20109;-80
2023/02/05 01:18:36;;;;;;;3.50;3.10;;;;;;;-1.32;100.00;103017.91;5082600;28;20075;-78
2023/02/05 01:21:03;;;;;;;4.07;3.38;;;;;;;-1.27;100.00;103013.13;5080352;28;20721;-78
2023/02/05 01:23:30;;;;;;;5.07;2.97;;;;;;;-1.28;100.00;103004.50;5074281;28;20117;-79
2023/02/05 01:25:56;;;;;;;4.15;2.53;;;;;;;-1.34;100.00;102994.66;5067887;28;20136;-80
2023/02/05 01:28:23;;;;;;;6.57;2.67;;;;;;;-1.36;100.00;102998.78;5071598;28;20040;-77
2023/02/05 01:30:51;;;;;;;3.08;2.55;;;;;;;-1.37;100.00;102983.25;5084016;28;20122;-80
2023/02/05 01:33:18;;;;;;;5.43;2.70;;;;;;;-1.39;100.00;102995.09;5069418;28;20068;-78
2023/02/05 01:35:45;;;;;;;2.83;2.35;;;;;;;-1.40;100.00;102994.19;5054361;28;20902;-77
2023/02/05 01:38:12;;;;;;;4.70;2.67;;;;;;;-1.43;100.00;102990.50;5077321;28;20061;-78
2023/02/05 01:40:40;;;;;;;3.75;3.17;;;;;;;-1.42;100.00;102990.59;5089327;28;20086;-78
2023/02/05 01:43:18;;;;;;;4.20;3.20;;;;;;;-1.43;100.00;103001.66;5077408;28;20051;-83
2023/02/05 01:45:57;;;;;;;3.13;2.70;;;;;;;-1.41;100.00;103004.34;5091213;28;20033;-77
2023/02/05 01:48:36;;;;;;;3.97;2.47;;;;;;;-1.41;100.00;102999.19;5087929;28;20040;-80
2023/02/05 01:51:07;;;;;;;8.40;2.33;;;;;;;-1.45;100.00;102974.06;5087238;28;20040;-83
2023/02/05 01:53:36;;;;;;;5.18;2.08;;;;;;;-1.44;100.00;102968.16;5067800;28;20041;-77
2023/02/05 01:56:49;;;;;;;2.28;2.08;;;;;;;-1.44;100.00;102968.16;5087826;28;20054;-79
2023/02/05 01:59:20;;;;;;;3.17;2.38;;;;;;;-1.45;100.00;102964.66;5095631;28;20128;-76
2023/02/05 02:01:47;;;;;;;5.47;2.85;;;;;;;-1.50;100.00;102954.06;5080323;28;20051;-80
2023/02/05 02:04:41;;;;;;;2.65;2.40;;;;;;;-1.50;100.00;102953.13;5081317;28;20044;-79
2023/02/05 02:07:17;;;;;;;5.13;2.08;;;;;;;-1.51;100.00;102946.22;5053580;28;20036;-77
2023/02/05 02:09:46;;;;;;;3.15;2.08;;;;;;;-1.52;100.00;102953.03;5071629;28;20041;-81
2023/02/05 02:12:18;;;;;;;1.98;1.75;;;;;;;-1.57;100.00;102953.44;5071482;28;20063;-79
2023/02/05 02:14:49;;;;;;;2.15;1.90;;;;;;;-1.55;100.00;102950.22;5068357;28;20052;-83
2023/02/05 02:17:17;;;;;;;3.28;2.10;;;;;;;-1.58;100.00;102946.50;5060073;28;20050;-78
2023/02/05 02:20:08;;;;;;;1.90;1.80;;;;;;;-1.61;100.00;102939.47;5086387;28;20033;-80
2023/02/05 02:22:45;;;;;;;2.47;2.28;;;;;;;-1.64;100.00;102944.38;5075928;28;20474;-81
2023/02/05 02:25:46;;;;;;;2.50;2.20;;;;;;;-1.69;100.00;102945.69;5082844;28;20129;-79
2023/02/05 02:28:22;;;;;;;7.18;2.90;;;;;;;-1.72;100.00;102942.88;5076711;28;20437;-79
2023/02/05 02:31:11;;;;;;;2.90;2.67;;;;;;;-1.72;100.00;102933.50;5077575;28;20045;-78
2023/02/05 02:34:04;;;;;;;4.50;2.58;;;;;;;-1.72;100.00;102930.03;5070639;28;20048;-79
2023/02/05 02:36:52;;;;;;;2.78;2.53;;;;;;;-1.73;100.00;102930.81;5067659;28;20047;-76
2023/02/05 02:39:31;;;;;;;4.32;2.60;;;;;;;-1.73;100.00;102915.41;5077148;28;20127;-77
2023/02/05 02:42:13;;;;;;;5.32;3.05;;;;;;;-1.75;100.00;102907.56;5072550;28;20435;-76
2023/02/05 02:45:01;;;;;;;4.88;3.28;;;;;;;-1.78;100.00;102909.03;5080047;28;20522;-77
2023/02/05 02:47:38;;;;;;;4.10;2.58;;;;;;;-1.81;100.00;102895.94;5076686;28;20044;-77
2023/02/05 02:50:14;;;;;;;3.70;2.78;;;;;;;-1.79;100.00;102890.13;5076753;28;20563;-79
2023/02/05 02:52:44;;;;;;;3.03;2.67;;;;;;;-1.78;100.00;102898.75;5082349;28;20039;-76
2023/02/05 02:55:14;;;;;;;3.03;2.45;;;;;;;-1.79;100.00;102910.69;5084101;28;20657;-81
2023/02/05 02:57:44;;;;;;;3.67;2.15;;;;;;;-1.73;100.00;102918.00;5077580;28;20076;-81
2023/02/05 03:00:23;;;;;;;3.22;1.75;;;;;;;-1.64;100.00;102920.34;5081115;28;20040;-81
2023/02/05 03:02:53;;;;;;;2.20;2.00;;;;;;;-1.57;100.00;102920.94;5073083;28;20055;-80
2023/02/05 03:05:22;;;;;;;3.80;2.22;;;;;;;-1.52;100.00;102916.16;5080644;28;20048;-79
2023/02/05 03:08:02;;;;;;;5.63;2.33;;;;;;;-1.44;100.00;102921.91;5082958;28;20036;-76
2023/02/05 03:10:46;;;;;;;2.17;1.92;;;;;;;-1.42;100.00;102915.19;5088251;28;20048;-77
2023/02/05 03:13:13;;;;;;;2.90;2.15;;;;;;;-1.40;100.00;102914.53;5078665;28;20040;-77
2023/02/05 03:15:44;;;;;;;4.15;2.92;;;;;;;-1.40;100.00;102914.53;5064816;28;20997;-77
2023/02/05 03:18:12;;;;;;;2.42;2.15;;;;;;;-1.36;100.00;102907.97;5086444;28;20044;-77
2023/02/05 03:20:50;;;;;;;1.98;1.88;;;;;;;-1.34;100.00;102899.59;5075752;28;20047;-76
2023/02/05 03:23:16;;;;;;;2.28;1.98;;;;;;;-1.33;100.00;102888.53;5083150;28;20064;-77
2023/02/05 03:25:43;;;;;;;8.05;2.10;;;;;;;-1.28;100.00;102893.13;5080651;28;20039;-79
2023/02/05 03:28:12;;;;;;;3.42;2.08;;;;;;;-1.24;100.00;102902.84;5079843;28;20036;-77
2023/02/05 03:31:10;;;;;;;3.67;1.98;;;;;;;-1.21;100.00;102906.56;5067148;28;20055;-77
2023/02/05 03:34:11;;;;;;;2.80;1.60;;;;;;;-1.14;100.00;102901.88;5080150;28;20045;-77
2023/02/05 03:37:15;;;;;;;4.38;2.60;;;;;;;-1.07;100.00;102905.03;5077648;28;20102;-85
2023/02/05 03:40:14;;;;;;;2.10;1.90;;;;;;;-1.00;100.00;102902.13;5099603;28;20046;-75
2023/02/05 03:43:01;;;;;;;4.57;2.10;;;;;;;-0.90;100.00;102900.22;5076284;28;20162;-77
2023/02/05 03:45:56;;;;;;;1.73;1.60;;;;;;;-0.82;100.00;102894.00;5078577;28;20044;-78
2023/02/05 03:48:44;;;;;;;1.70;1.48;;;;;;;-0.76;100.00;102883.25;5074162;28;20090;-76
2023/02/05 03:51:22;;;;;;;2.78;1.83;;;;;;;-0.74;100.00;102874.88;5081415;28;20040;-76
2023/02/05 03:54:34;;;;;;;4.47;2.22;;;;;;;-0.72;100.00;102873.31;5080676;28;20037;-77
2023/02/05 03:57:22;;;;;;;2.47;1.95;;;;;;;-0.72;100.00;102881.03;5052978;28;20040;-75
2023/02/05 03:59:50;;;;;;;2.25;2.08;;;;;;;-0.71;100.00;102871.63;5047468;28;20045;-77
2023/02/05 04:02:18;;;;;;;3.20;2.28;;;;;;;-0.71;100.00;102864.78;5051604;28;20060;-77
2023/02/05 04:04:44;;;;;;;3.63;2.08;;;;;;;-0.72;100.00;102859.53;5083578;28;20069;-76
2023/02/05 04:07:11;;;;;;;2.67;1.75;;;;;;;-0.73;100.00;102850.03;5092194;28;20040;-75
2023/02/05 04:09:37;;;;;;;3.33;1.98;;;;;;;-0.76;100.00;102857.53;5086360;28;20041;-76
2023/02/05 04:12:04;;;;;;;1.80;1.70;;;;;;;-0.79;100.00;102858.22;5067786;28;20039;-76
2023/02/05 04:14:31;;;;;;;3.97;2.30;;;;;;;-0.80;100.00;102861.56;5090499;28;20040;-77
2023/02/05 04:16:57;;;;;;;3.75;1.52;;;;;;;-0.81;100.00;102864.91;5079192;28;20040;-75
2023/02/05 04:19:24;;;;;;;2.75;1.90;;;;;;;-0.77;100.00;102864.38;5099374;28;20044;-77
2023/02/05 04:21:50;;;;;;;4.43;2.45;;;;;;;-0.72;100.00;102862.13;5089931;28;20042;-77
2023/02/05 04:24:17;;;;;;;5.10;2.50;;;;;;;-0.65;100.00;102871.16;5091586;28;20478;-77
2023/02/05 04:26:43;;;;;;;3.60;2.08;;;;;;;-0.62;100.00;102867.16;5078745;28;20044;-79
2023/02/05 04:29:09;;;;;;;5.50;2.10;;;;;;;-0.56;100.00;102866.69;5072673;28;20044;-77
2023/02/05 04:31:38;;;;;;;3.72;2.47;;;;;;;-0.53;100.00;102862.66;5090347;28;20106;-77
2023/02/05 04:34:04;;;;;;;2.40;2.20;;;;;;;-0.51;100.00;102855.06;5090785;28;20067;-78
2023/02/05 04:36:31;;;;;;;3.10;2.80;;;;;;;-0.49;100.00;102863.78;5079066;28;20049;-77
2023/02/05 04:38:57;;;;;;;1.85;1.67;;;;;;;-0.47;100.00;102857.09;5069038;28;20059;-78
2023/02/05 04:41:24;;;;;;;1.95;1.73;;;;;;;-0.47;100.00;102862.25;5106531;28;20487;-79
2023/02/05 04:43:50;;;;;;;2.58;1.70;;;;;;;-0.48;100.00;102859.53;5085673;28;20047;-78
2023/02/05 04:46:17;;;;;;;2.25;1.80;;;;;;;-0.48;100.00;102857.88;5096390;27;20032;-78
2023/02/05 04:48:43;;;;;;;2.10;1.73;;;;;;;-0.49;100.00;102856.06;5088320;28;20111;-77
2023/02/05 04:51:13;;;;;;;2.25;1.98;;;;;;;-0.47;100.00;102851.03;5081776;28;20483;-76
2023/02/05 04:53:41;;;;;;;2.65;1.70;;;;;;;-0.47;100.00;102843.31;5070377;28;20352;-79
2023/02/05 04:56:14;;;;;;;2.97;1.95;;;;;;;-0.46;100.00;102845.09;5086215;28;20050;-79
2023/02/05 04:58:42;;;;;;;2.42;1.60;;;;;;;-0.47;100.00;102840.75;5093107;28;20063;-81
2023/02/05 05:01:18;;;;;;;1.67;1.58;;;;;;;-0.44;100.00;102840.94;5071018;28;20529;-81
2023/02/05 05:03:45;;;;;;;3.58;1.80;;;;;;;-0.45;100.00;102837.50;5070328;28;20060;-77
2023/02/05 05:06:13;;;;;;;1.90;1.80;;;;;;;-0.41;100.00;102836.03;5073495;28;20049;-76
2023/02/05 05:08:39;;;;;;;2.15;1.55;;;;;;;-0.41;99.64;102846.31;5088028;28;20047;-76
2023/02/05 05:11:09;;;;;;;7.95;2.10;;;;;;;-0.39;99.90;102839.59;5088658;28;20040;-76
2023/02/05 05:13:36;;;;;;;2.90;1.90;;;;;;;-0.39;99.31;102850.81;5085603;28;20041;-76
2023/02/05 05:16:04;;;;;;;3.35;1.75;;;;;;;-0.37;98.89;102846.63;5080025;28;20044;-77
2023/02/05 05:18:31;;;;;;;4.28;1.77;;;;;;;-0.34;99.09;102848.53;5086786;28;20044;-77
2023/02/05 05:20:57;;;;;;;1.67;1.58;;;;;;;-0.32;98.84;102846.09;5089824;28;20051;-77
2023/02/05 05:23:24;;;;;;;4.35;1.75;;;;;;;-0.30;99.03;102834.22;5087344;28;20048;-76
2023/02/05 05:25:50;;;;;;;1.77;1.67;;;;;;;-0.29;98.93;102828.28;5087934;28;20048;-76
2023/02/05 05:28:17;;;;;;;2.10;1.63;;;;;;;-0.30;99.01;102829.97;5086153;28;20036;-77
2023/02/05 05:30:46;;;;;;;2.05;1.88;;;;;;;-0.29;98.78;102823.13;5087655;28;20485;-76
2023/02/05 05:33:12;;;;;;;1.80;1.70;;;;;;;-0.29;98.51;102820.56;5078818;28;20058;-77
2023/02/05 05:35:39;;;;;;;2.63;2.10;;;;;;;-0.32;98.67;102821.25;5078740;28;20059;-78
2023/02/05 05:38:06;;;;;;;3.03;2.25;;;;;;;-0.34;98.66;102818.56;5077570;28;20044;-82
2023/02/05 05:46:06;;;;;;;3.13;2.38;;;;;;;-0.41;99.15;102813.75;5087010;28;20028;-77
2023/02/05 05:48:33;;;;;;;2.00;1.60;;;;;;;-0.39;99.34;102813.84;5076726;28;20047;-77
2023/02/05 05:50:59;;;;;;;2.40;1.80;;;;;;;-0.37;99.00;102807.16;5084097;28;20036;-76
2023/02/05 05:53:26;;;;;;;1.88;1.77;;;;;;;-0.35;98.78;102803.03;5086455;28;20117;-78
2023/02/05 05:55:52;;;;;;;2.15;1.40;;;;;;;-0.35;98.69;102788.47;5079593;28;20049;-77
2023/02/05 05:58:19;;;;;;;1.98;1.80;;;;;;;-0.37;98.87;102774.59;5089187;28;20094;-77
2023/02/05 06:00:45;;;;;;;1.52;1.30;;;;;;;-0.38;98.70;102772.81;5084765;28;20085;-77
2023/02/05 06:03:12;;;;;;;4.78;2.22;;;;;;;-0.35;99.24;102759.28;5064678;28;20044;-76
2023/02/05 06:05:39;;;;;;;3.85;1.60;;;;;;;-0.33;98.79;102755.09;5091991;28;20406;-78
2023/02/05 06:08:06;;;;;;;3.17;1.73;;;;;;;-0.31;98.41;102734.63;5097018;28;20044;-82
2023/02/05 06:10:33;;;;;;;6.13;1.70;;;;;;;-0.30;98.84;102711.59;5087906;28;20055;-77
2023/02/05 06:13:00;;;;;;;1.55;1.45;;;;;;;-0.31;97.96;102720.09;5092189;28;20036;-76
2023/02/05 06:15:27;;;;;;;5.72;2.95;;;;;;;-0.31;98.23;102725.25;5068032;28;20093;-76
2023/02/05 06:17:53;;;;;;;1.90;1.80;;;;;;;-0.26;98.41;102746.13;5075740;28;20040;-82
2023/02/05 06:20:20;;;;;;;1.75;1.65;;;;;;;-0.24;98.34;102767.72;5083442;28;20056;-79
2023/02/05 06:22:47;;;;;;;2.35;1.65;;;;;;;-0.19;98.19;102776.66;5082909;28;20049;-76
2023/02/05 06:25:14;;;;;;;2.63;2.40;;;;;;;-0.17;98.12;102765.69;5066605;28;20103;-77
2023/02/05 06:27:41;;;;;;;1.77;1.17;;;;;;;-0.18;97.81;102761.31;5089575;28;20134;-76
2023/02/05 06:30:08;;;;;;;3.75;1.75;;;;;;;-0.19;97.61;102768.94;5095744;28;20043;-77
2023/02/05 06:32:34;;;;;;;3.67;1.60;;;;;;;-0.20;98.42;102780.03;5084957;28;20149;-77
2023/02/05 06:35:01;;;;;;;1.88;1.77;;;;;;;-0.18;98.23;102778.47;5086722;28;20097;-76
2023/02/05 06:37:28;;;;;;;2.55;2.10;;;;;;;-0.21;98.04;102768.84;5086313;28;20047;-76
2023/02/05 06:39:55;;;;;;;6.80;1.60;;;;;;;-0.20;98.17;102767.16;5086015;28;20047;-82
2023/02/05 06:42:22;;;;;;;1.40;1.30;;;;;;;-0.15;98.73;102772.63;5087446;28;20050;-76
2023/02/05 06:44:48;;;;;;;1.88;1.77;;;;;;;-0.12;98.55;102767.69;5087848;28;20044;-79
2023/02/05 06:47:15;;;;;;;2.38;1.70;;;;;;;-0.09;98.20;102758.50;5097196;28;20047;-78
2023/02/05 06:49:41;;;;;;;2.65;1.63;;;;;;;-0.07;98.17;102758.59;5090869;28;20039;-77
2023/02/05 06:52:08;;;;;;;2.80;2.17;;;;;;;-0.05;98.11;102746.72;5085848;28;20040;-78
2023/02/05 06:54:34;;;;;;;2.45;2.20;;;;;;;0.00;97.96;102737.66;5084512;28;20048;-77
2023/02/05 06:57:00;;;;;;;4.70;3.08;;;;;;;0.04;97.58;102731.91;5089834;28;20037;-79
2023/02/05 06:59:27;;;;;;;2.35;1.90;;;;;;;0.06;97.09;102727.72;5084951;28;20752;-77
2023/02/05 07:01:53;;;;;;;4.18;2.13;;;;;;;0.07;97.44;102738.94;5090217;28;20497;-79
2023/02/05 07:04:20;;;;;;;5.28;3.30;;;;;;;0.05;96.95;102753.38;5087850;28;20037;-79
2023/02/05 07:06:46;;;;;;;3.42;2.53;;;;;;;0.07;97.18;102755.28;5089928;28;20036;-78
2023/02/05 07:09:13;;;;;;;2.40;2.20;;;;;;;0.06;97.18;102756.06;5091168;28;20063;-78
2023/02/05 07:11:39;;;;;;;4.47;2.85;;;;;;;0.05;97.82;102753.38;5090021;28;20040;-78
2023/02/05 07:14:05;;;;;;;4.45;2.50;;;;;;;0.04;97.33;102749.94;5081922;28;20040;-82
2023/02/05 07:16:32;;;;;;;3.95;2.25;;;;;;;0.04;97.49;102742.22;5088459;28;20036;-78
2023/02/05 07:18:58;;;;;;;2.90;1.67;;;;;;;0.05;97.15;102738.81;5080684;28;20043;-76
2023/02/05 07:21:25;;;;;;;3.65;2.58;;;;;;;0.08;96.96;102730.41;5085954;28;20040;-76
2023/02/05 07:23:56;;;;;;;3.72;2.05;;;;;;;0.13;97.42;102735.09;5078872;28;20059;-78
2023/02/05 07:26:23;;;;;;;2.85;2.05;;;;;;;0.19;97.23;102738.88;5092535;28;20047;-76
2023/02/05 07:28:50;;;;;;;1.80;1.50;;;;;;;0.22;96.76;102737.41;5081191;28;20040;-77
2023/02/05 07:31:57;;;;;;;3.80;1.73;;;;;;;0.23;96.50;102744.31;5072617;28;20405;-79
2023/02/05 07:34:26;;;;;;;3.80;2.25;;;;;;;0.27;96.31;102753.16;5081472;28;20075;-76
2023/02/05 07:37:08;;;;;;;2.28;2.00;;;;;;;0.34;96.36;102747.63;5077091;28;20391;-77
2023/02/05 07:39:35;;;;;;;3.75;2.10;;;;;;;0.38;96.21;102747.03;5084222;28;20040;-78
2023/02/05 07:42:09;;;;;;;3.05;1.75;;;;;;;0.42;95.64;102741.28;5070250;28;20505;-79
2023/02/05 07:44:36;;;;;;;2.15;1.83;;;;;;;0.44;95.38;102739.72;5087035;28;20080;-76
2023/02/05 07:47:02;;;;;;;3.00;1.30;;;;;;;0.47;95.73;102747.66;5072293;28;20082;-78
2023/02/05 07:49:29;;;;;;;1.60;1.48;;;;;;;0.52;95.33;102737.63;5094937;28;20119;-78
2023/02/05 07:55:18;;;;;;;2.65;1.83;;;;;;;0.53;94.76;102734.25;5083188;28;20089;-77
2023/02/05 07:57:45;;;;;;;2.35;1.90;;;;;;;0.56;94.78;102731.00;5088310;28;20039;-77
2023/02/05 08:00:13;;;;;;;4.85;3.30;;;;;;;0.59;94.40;102733.78;5094999;28;20131;-78
2023/02/05 08:02:39;;;;;;;2.28;1.80;;;;;;;0.63;94.86;102721.19;5091707;28;20686;-77
2023/02/05 08:05:07;;;;;;;3.83;2.45;;;;;;;0.67;94.25;102724.88;5086957;28;20498;-77
2023/02/05 08:07:36;;;;;;;2.15;1.98;;;;;;;0.72;94.29;102718.31;5076146;28;20046;-78
2023/02/05 08:10:04;;;;;;;2.15;1.90;;;;;;;0.71;94.20;102726.84;5076590;28;20049;-78
2023/02/05 08:12:31;;;;;;;2.45;1.92;;;;;;;0.75;93.82;102722.78;5085962;28;20037;-77
2023/02/05 08:14:57;;;;;;;3.17;2.97;;;;;;;0.79;94.19;102720.50;5085828;28;20487;-78
2023/02/05 08:17:24;;;;;;;1.85;1.75;;;;;;;0.84;93.85;102723.38;5074721;28;20652;-79
2023/02/05 08:19:51;;;;;;;3.38;2.00;;;;;;;0.90;93.67;102728.94;5091033;28;20060;-77
2023/02/05 08:22:17;;;;;;;2.17;1.70;;;;;;;0.95;93.63;102719.81;5088981;28;20494;-76
2023/02/05 08:24:43;;;;;;;5.38;1.73;;;;;;;1.02;93.46;102726.25;5091858;28;20048;-78
2023/02/05 08:27:10;;;;;;;2.80;1.85;;;;;;;1.10;93.73;102725.03;5091478;28;20048;-78
2023/02/05 08:29:37;;;;;;;2.95;1.95;;;;;;;1.14;93.58;102737.31;5090282;28;20043;-77
2023/02/05 08:32:03;;;;;;;2.38;2.17;;;;;;;1.18;93.48;102737.53;5086866;28;20059;-77
2023/02/05 08:34:30;;;;;;;2.92;2.53;;;;;;;1.15;93.79;102741.69;5081446;28;20036;-76
2023/02/05 08:36:56;;;;;;;7.35;2.88;;;;;;;1.15;94.01;102743.41;5071959;28;20051;-76
2023/02/05 08:39:24;;;;;;;4.20;2.63;;;;;;;1.13;94.97;102740.72;5100929;28;20152;-78
2023/02/05 08:41:54;;;;;;;5.07;2.30;;;;;;;1.12;95.31;102733.78;5087988;28;20451;-82
2023/02/05 08:44:20;;;;;;;3.25;2.10;;;;;;;1.14;96.16;102737.31;5080403;28;20394;-78
2023/02/05 08:46:47;;;;;;;4.95;3.17;;;;;;;1.12;96.45;102733.78;5080983;28;20048;-77
2023/02/05 08:49:15;;;;;;;3.28;2.15;;;;;;;1.16;97.28;102732.25;5081100;28;20079;-77
2023/02/05 08:51:43;;;;;;;2.85;2.05;;;;;;;1.15;97.76;102730.50;5069476;28;20384;-76
2023/02/05 08:54:11;;;;;;;2.55;2.28;;;;;;;1.13;97.87;102730.41;5090367;28;20044;-77
2023/02/05 08:56:39;;;;;;;6.35;2.45;;;;;;;1.09;98.68;102730.97;5092764;28;20040;-76
2023/02/05 08:59:07;;;;;;;3.38;2.75;;;;;;;1.08;99.53;102729.22;5086673;28;20051;-77
2023/02/05 09:01:35;;;;;;;2.97;2.72;;;;;;;1.08;100.00;102731.78;5072140;28;20043;-75
2023/02/05 09:04:01;;;;;;;2.47;2.25;;;;;;;1.08;100.00;102731.78;5071882;28;20063;-77
2023/02/05 09:06:28;;;;;;;2.67;2.47;;;;;;;1.09;100.00;102736.13;5090947;28;20518;-77
2023/02/05 09:08:54;;;;;;;2.85;2.05;;;;;;;1.10;100.00;102730.19;5089349;28;20489;-77
2023/02/05 09:11:25;;;;;;;5.45;3.30;;;;;;;1.15;100.00;102727.91;5085880;28;20097;-76
2023/02/05 09:13:53;;;;;;;4.03;2.80;;;;;;;1.13;100.00;102730.41;5067557;28;20066;-76
2023/02/05 09:16:19;;;;;;;2.90;2.35;;;;;;;1.08;100.00;102741.19;5085547;28;20552;-77
2023/02/05 09:18:46;;;;;;;4.05;2.55;;;;;;;1.07;100.00;102734.25;5072641;28;20053;-77
2023/02/05 09:21:13;;;;;;;13.57;8.57;;;;;;;1.01;100.00;102724.44;5096271;28;20572;-76
2023/02/05 09:23:39;;;;;;;4.32;2.88;;;;;;;0.97;100.00;102732.78;5092557;28;20791;-76
2023/02/05 09:26:08;;;;;;;4.22;3.03;;;;;;;0.91;100.00;102725.56;5073521;28;20063;-77
2023/02/05 09:28:35;;;;;;;5.78;4.32;;;;;;;0.93;100.00;102731.69;5095560;28;20131;-78
2023/02/05 09:31:14;;;;;;;11.30;4.45;;;;;;;0.95;100.00;102730.13;5080324;28;20055;-76
2023/02/05 09:33:42;;;;;;;10.95;4.55;;;;;;;0.93;100.00;102723.97;5079906;28;20102;-80
2023/02/05 09:36:15;;;;;;;7.50;3.45;;;;;;;0.91;100.00;102727.22;5083584;28;20044;-76
2023/02/05 09:38:41;;;;;;;3.60;2.80;;;;;;;0.89;100.00;102731.41;5086803;28;20078;-81
2023/02/05 09:41:23;;;;;;;4.88;3.55;;;;;;;0.87;100.00;102733.88;5089955;28;20033;-78
2023/02/05 09:44:36;;;;;;;4.60;3.63;;;;;;;0.86;100.00;102726.03;5087869;28;20108;-78
2023/02/05 09:47:20;;;;;;;9.85;3.92;;;;;;;0.89;100.00;102727.13;5089429;28;20078;-77
2023/02/05 09:50:24;;;;;;;4.28;3.50;;;;;;;0.93;100.00;102741.13;5070574;28;20055;-76
2023/02/05 09:52:54;;;;;;;4.97;3.60;;;;;;;0.93;100.00;102739.44;5075889;28;20040;-76
2023/02/05 09:55:30;;;;;;;4.38;3.40;;;;;;;0.93;100.00;102744.59;5082497;28;20048;-77
2023/02/05 09:58:05;;;;;;;7.35;4.38;;;;;;;0.91;100.00;102741.03;5070954;28;20045;-79
2023/02/05 10:00:47;;;;;;;3.10;2.80;;;;;;;0.90;100.00;102743.50;5074528;28;20844;-78
2023/02/05 10:03:13;;;;;;;5.40;3.50;;;;;;;0.87;100.00;102736.44;5096124;28;20395;-79
2023/02/05 10:06:04;;;;;;;9.43;3.67;;;;;;;0.82;100.00;102733.59;5098144;27;20043;-77
2023/02/05 10:09:03;;;;;;;4.40;2.92;;;;;;;0.82;100.00;102738.75;5085147;28;20059;-78
2023/02/05 10:11:39;;;;;;;4.80;2.90;;;;;;;0.82;100.00;102737.84;5072505;28;20055;-78
2023/02/05 10:14:22;;;;;;;11.20;3.20;;;;;;;0.85;100.00;102739.72;5083938;28;20049;-82
2023/02/05 10:17:30;;;;;;;3.00;2.80;;;;;;;0.88;100.00;102734.78;5085761;28;20039;-76
2023/02/05 10:20:19;;;;;;;5.40;3.67;;;;;;;0.90;100.00;102749.56;5086723;28;20368;-77
2023/02/05 10:23:12;;;;;;;7.80;3.30;;;;;;;0.90;100.00;102738.34;5097736;28;20044;-76
2023/02/05 10:25:47;;;;;;;5.13;3.67;;;;;;;0.95;100.00;102743.03;5084888;28;20039;-76
2023/02/05 10:29:10;;;;;;;3.45;2.90;;;;;;;1.06;100.00;102748.84;5094388;28;20048;-76
2023/02/05 10:32:15;;;;;;;3.95;3.22;;;;;;;1.10;100.00;102745.66;5085278;28;20151;-76
2023/02/05 10:35:03;;;;;;;3.40;2.78;;;;;;;1.12;100.00;102746.66;5101455;27;20443;-76
2023/02/05 10:37:49;;;;;;;4.78;3.15;;;;;;;1.17;100.00;102746.94;5085285;28;20255;-76
2023/02/05 10:40:21;;;;;;;4.57;3.53;;;;;;;1.20;100.00;102743.66;5090307;28;20040;-82
2023/02/05 10:43:00;;;;;;;5.35;3.65;;;;;;;1.25;100.00;102748.34;5091189;28;20047;-76
2023/02/05 10:45:29;;;;;;;8.00;3.75;;;;;;;1.31;100.00;102760.72;5091318;28;20040;-77
2023/02/05 10:48:46;;;;;;;3.90;3.22;;;;;;;1.42;100.00;102753.66;5087230;28;20040;-77
2023/02/05 10:51:23;;;;;;;4.60;3.45;;;;;;;1.50;100.00;102755.03;5088260;28;20050;-76
2023/02/05 10:53:49;;;;;;;2.80;2.45;;;;;;;1.51;100.00;102754.22;5090246;28;20041;-77
2023/02/05 10:56:19;;;;;;;5.55;3.58;;;;;;;1.57;100.00;102749.44;5092342;28;20044;-76
2023/02/05 10:58:56;;;;;;;3.17;2.67;;;;;;;1.58;100.00;102750.34;5091979;28;20047;-78
2023/02/05 11:01:40;;;;;;;6.88;3.47;;;;;;;1.55;100.00;102750.13;5096065;28;20046;-76
2023/02/05 11:04:13;;;;;;;3.67;3.38;;;;;;;1.56;100.00;102744.19;5086709;28;20059;-76
2023/02/05 11:06:50;;;;;;;5.40;2.95;;;;;;;1.55;100.00;102751.06;5086537;28;20229;-76
2023/02/05 11:09:26;;;;;;;4.28;3.72;;;;;;;1.57;100.00;102754.59;5086856;28;20041;-78
2023/02/05 11:11:59;;;;;;;6.07;3.63;;;;;;;1.61;100.00;102755.69;5085830;28;20036;-76
2023/02/05 11:14:39;;;;;;;4.35;2.90;;;;;;;1.66;100.00;102759.44;5074361;28;20058;-76
2023/02/05 11:17:23;;;;;;;6.65;3.88;;;;;;;1.65;100.00;102765.41;5086641;28;20390;-78
2023/02/05 11:20:00;;;;;;;5.22;2.85;;;;;;;1.66;100.00;102762.03;5086491;28;20504;-75
2023/02/05 11:22:38;;;;;;;5.40;3.35;;;;;;;1.71;100.00;102762.28;5094325;28;20044;-75
2023/02/05 11:25:24;;;;;;;4.93;3.15;;;;;;;1.75;100.00;102761.72;5080098;28;20052;-76
2023/02/05 11:27:57;;;;;;;3.97;3.28;;;;;;;1.82;100.00;102766.44;5093049;28;20064;-76
2023/02/05 11:30:34;;;;;;;5.10;3.90;;;;;;;1.93;100.00;102772.25;5100319;28;20040;-76
2023/02/05 11:33:24;;;;;;;6.25;3.75;;;;;;;2.04;100.00;102773.78;5101178;28;20040;-75
2023/02/05 11:35:58;;;;;;;3.88;3.38;;;;;;;2.15;100.00;102782.19;5096494;28;20048;-74
2023/02/05 11:38:50;;;;;;;6.47;4.32;;;;;;;2.19;100.00;102783.25;5079773;28;20127;-78
2023/02/05 11:41:46;;;;;;;8.48;4.65;;;;;;;2.22;100.00;102776.59;5093989;28;20119;-84
2023/02/05 11:44:20;;;;;;;12.75;3.90;;;;;;;2.19;100.00;102785.84;5094968;28;20162;-76
2023/02/05 11:46:47;;;;;;;26.77;10.13;;;;;;;2.23;100.00;102788.72;5096980;28;20040;-80
2023/02/05 11:49:40;;;;;;;4.45;3.10;;;;;;;2.26;100.00;102790.59;5088585;28;20045;-80
2023/02/05 11:52:14;;;;;;;6.03;3.00;;;;;;;2.28;100.00;102788.97;5089788;28;20047;-77
2023/02/05 11:54:47;;;;;;;6.97;3.53;;;;;;;2.23;100.00;102795.56;5081877;28;20502;-76